Orange Beach, AL (36561)

11:01 AM CST on March 06, 2015 (GMT -0600)
Community Development | Change Station
CLOSE
Current Station
Personal Weather Station
Location: Orange Beach, AL
Elevation: 59 ft
Nearby Weather Stations

Elev 59 ft 30.28 °N, 87.58 °W | Updated 5 minutes ago

Clear
Clear
44.6 °F
Feels Like 41 °F
N
6.0
Wind Variable Wind from NW
Gusts 12.0 mph

Today
High -- | Low -- °F
--% Chance of Precip.
Yesterday
High -- | Low -- °F
Precip. -- in
6:10 AM 5:52 PM
Full, 99% visible
Pressure 30.43 in
Visibility 10.0 miles
Clouds Clear
Windchill 41 °F
Dew Point 28 °F
Humidity 52%
Rainfall in
Snow Depth Not available.
UV 8 out of 12
Pollen 8.50 out of 12
Air Quality Not available.
Flu Activity Not available.
METAR KJKA 061655Z AUTO 01012G17KT 10SM CLR 06/M06 A3043 RMK AO2 T00551061

More Conditions Fewer Conditions

Pressure 30.43 in
Visibility 10.0 miles
Clouds Clear
Windchill 41 °F
Dew Point 28 °F
Humidity 52%
Rainfall in
Snow Depth Not available.
UV 8 out of 12
Pollen 8.50 out of 12
Air Quality Not available.
Flu Activity Not available.
METAR KJKA 061655Z AUTO 01012G17KT 10SM CLR 06/M06 A3043 RMK AO2 T00551061

More Conditions Fewer Conditions

10-Day Weather Forecast

Almanac

Astronomy

Mar. 06, 2015 Rise Set
Actual Time
Civil Twilight
Nautical Twilight
Astronomical Twilight
Moon
Length of Visible Light
Length of Day
Tomorrow will be .
, % of the Moon is Illuminated

Today's Extremes

State Highs State Lows

Community

WunderPhotos

Upload Photos

1,803,337 photos uploaded!

WunderBlogs® & News

Nearby

Air Quality

  Air Quality AQ Index Pollutant
Not available.

Snow Depth

Station Depth Elevation

Earthquake Activity

City Distance Mag. Time & Date
Minimum magnitude displayed is 2.5.

Coastal Water Temperatures

Place Temperature

Nearby Weather Stations